sensor_id;sensor_type;location;lat;lon;timestamp;temperature;humidity
7174;DHT22;3628;48.654;8.932;2022-12-24T00:00:56;9.80;99.90
7174;DHT22;3628;48.654;8.932;2022-12-24T00:03:22;9.80;99.90
7174;DHT22;3628;48.654;8.932;2022-12-24T00:05:47;9.80;99.90
7174;DHT22;3628;48.654;8.932;2022-12-24T00:08:13;9.80;99.90
7174;DHT22;3628;48.654;8.932;2022-12-24T00:10:38;9.80;99.90
7174;DHT22;3628;48.654;8.932;2022-12-24T00:13:04;9.70;99.90
7174;DHT22;3628;48.654;8.932;2022-12-24T00:15:29;9.70;99.90
7174;DHT22;3628;48.654;8.932;2022-12-24T00:17:55;9.60;99.90
7174;DHT22;3628;48.654;8.932;2022-12-24T00:20:20;9.60;99.90
7174;DHT22;3628;48.654;8.932;2022-12-24T00:22:46;9.60;99.90
7174;DHT22;3628;48.654;8.932;2022-12-24T00:25:11;9.60;99.90
7174;DHT22;3628;48.654;8.932;2022-12-24T00:27:37;9.50;99.90
7174;DHT22;3628;48.654;8.932;2022-12-24T00:30:03;9.50;99.90
7174;DHT22;3628;48.654;8.932;2022-12-24T00:32:28;9.50;99.90
7174;DHT22;3628;48.654;8.932;2022-12-24T00:34:54;9.40;99.90
7174;DHT22;3628;48.654;8.932;2022-12-24T00:37:20;9.40;99.90
7174;DHT22;3628;48.654;8.932;2022-12-24T00:39:45;9.30;99.90
7174;DHT22;3628;48.654;8.932;2022-12-24T00:42:11;9.30;99.90
7174;DHT22;3628;48.654;8.932;2022-12-24T00:44:36;9.20;99.90
7174;DHT22;3628;48.654;8.932;2022-12-24T00:47:02;9.10;99.90
7174;DHT22;3628;48.654;8.932;2022-12-24T00:49:27;9.10;99.90
7174;DHT22;3628;48.654;8.932;2022-12-24T00:51:53;9.00;99.90
7174;DHT22;3628;48.654;8.932;2022-12-24T00:54:18;9.00;99.90
7174;DHT22;3628;48.654;8.932;2022-12-24T00:56:44;8.90;99.90
7174;DHT22;3628;48.654;8.932;2022-12-24T00:59:09;8.80;99.90
7174;DHT22;3628;48.654;8.932;2022-12-24T01:01:35;8.80;99.90
7174;DHT22;3628;48.654;8.932;2022-12-24T01:04:01;8.70;99.90
7174;DHT22;3628;48.654;8.932;2022-12-24T01:06:45;8.80;99.90
7174;DHT22;3628;48.654;8.932;2022-12-24T01:09:11;8.70;99.90
7174;DHT22;3628;48.654;8.932;2022-12-24T01:11:36;8.70;99.90
7174;DHT22;3628;48.654;8.932;2022-12-24T01:14:02;8.70;99.90
7174;DHT22;3628;48.654;8.932;2022-12-24T01:16:27;8.80;99.90
7174;DHT22;3628;48.654;8.932;2022-12-24T01:18:53;8.80;99.90
7174;DHT22;3628;48.654;8.932;2022-12-24T01:21:19;8.80;99.90
7174;DHT22;3628;48.654;8.932;2022-12-24T01:23:44;8.80;99.90
7174;DHT22;3628;48.654;8.932;2022-12-24T01:26:10;8.80;99.90
7174;DHT22;3628;48.654;8.932;2022-12-24T01:28:39;8.90;99.90
7174;DHT22;3628;48.654;8.932;2022-12-24T01:31:16;8.90;99.90
7174;DHT22;3628;48.654;8.932;2022-12-24T01:33:43;8.80;99.90
7174;DHT22;3628;48.654;8.932;2022-12-24T01:36:09;8.80;99.90
7174;DHT22;3628;48.654;8.932;2022-12-24T01:38:35;8.80;99.90
7174;DHT22;3628;48.654;8.932;2022-12-24T01:41:00;8.80;99.90
7174;DHT22;3628;48.654;8.932;2022-12-24T01:43:45;8.80;99.90
7174;DHT22;3628;48.654;8.932;2022-12-24T01:48:45;8.70;99.90
7174;DHT22;3628;48.654;8.932;2022-12-24T01:51:15;8.60;99.90
7174;DHT22;3628;48.654;8.932;2022-12-24T01:53:44;8.60;99.90
7174;DHT22;3628;48.654;8.932;2022-12-24T01:56:11;8.60;99.90
7174;DHT22;3628;48.654;8.932;2022-12-24T01:58:39;8.60;99.90
7174;DHT22;3628;48.654;8.932;2022-12-24T02:01:05;8.60;99.90
7174;DHT22;3628;48.654;8.932;2022-12-24T02:03:31;8.70;99.90
7174;DHT22;3628;48.654;8.932;2022-12-24T02:05:57;8.70;99.90
7174;DHT22;3628;48.654;8.932;2022-12-24T02:08:24;8.70;99.90
7174;DHT22;3628;48.654;8.932;2022-12-24T02:11:08;8.70;99.90
7174;DHT22;3628;48.654;8.932;2022-12-24T02:13:34;8.70;99.90
7174;DHT22;3628;48.654;8.932;2022-12-24T02:24:28;8.80;99.90
7174;DHT22;3628;48.654;8.932;2022-12-24T02:32:40;8.90;99.90
7174;DHT22;3628;48.654;8.932;2022-12-24T02:38:12;9.00;99.90
7174;DHT22;3628;48.654;8.932;2022-12-24T02:40:52;9.00;99.90
7174;DHT22;3628;48.654;8.932;2022-12-24T02:43:23;9.00;99.90
7174;DHT22;3628;48.654;8.932;2022-12-24T02:45:55;9.00;99.90
7174;DHT22;3628;48.654;8.932;2022-12-24T02:48:23;9.00;99.90
7174;DHT22;3628;48.654;8.932;2022-12-24T02:51:06;9.10;99.90
7174;DHT22;3628;48.654;8.932;2022-12-24T02:53:33;9.10;99.90
7174;DHT22;3628;48.654;8.932;2022-12-24T02:59:08;9.20;99.90
7174;DHT22;3628;48.654;8.932;2022-12-24T03:02:00;9.30;99.90
7174;DHT22;3628;48.654;8.932;2022-12-24T03:04:56;9.30;99.90
7174;DHT22;3628;48.654;8.932;2022-12-24T03:12:57;9.20;99.90
7174;DHT22;3628;48.654;8.932;2022-12-24T03:15:25;9.10;99.90
7174;DHT22;3628;48.654;8.932;2022-12-24T03:17:55;9.10;99.90
7174;DHT22;3628;48.654;8.932;2022-12-24T03:20:35;9.00;99.90
7174;DHT22;3628;48.654;8.932;2022-12-24T03:23:02;9.00;99.90
7174;DHT22;3628;48.654;8.932;2022-12-24T03:25:28;9.00;99.90
7174;DHT22;3628;48.654;8.932;2022-12-24T03:27:55;9.00;99.90
7174;DHT22;3628;48.654;8.932;2022-12-24T03:30:21;9.00;99.90
7174;DHT22;3628;48.654;8.932;2022-12-24T03:32:47;9.00;99.90
7174;DHT22;3628;48.654;8.932;2022-12-24T03:35:13;9.00;99.90
7174;DHT22;3628;48.654;8.932;2022-12-24T03:37:39;9.00;99.90
7174;DHT22;3628;48.654;8.932;2022-12-24T03:40:06;9.00;99.90
7174;DHT22;3628;48.654;8.932;2022-12-24T03:42:31;9.00;99.90
7174;DHT22;3628;48.654;8.932;2022-12-24T03:44:57;8.90;99.90
7174;DHT22;3628;48.654;8.932;2022-12-24T03:47:22;8.80;99.90
7174;DHT22;3628;48.654;8.932;2022-12-24T03:49:48;8.80;99.90
7174;DHT22;3628;48.654;8.932;2022-12-24T03:52:13;8.80;99.90
7174;DHT22;3628;48.654;8.932;2022-12-24T03:54:39;8.80;99.90
7174;DHT22;3628;48.654;8.932;2022-12-24T03:57:05;8.80;99.90
7174;DHT22;3628;48.654;8.932;2022-12-24T03:59:30;8.80;99.90
7174;DHT22;3628;48.654;8.932;2022-12-24T04:01:56;8.80;99.90
7174;DHT22;3628;48.654;8.932;2022-12-24T04:04:21;8.70;99.90
7174;DHT22;3628;48.654;8.932;2022-12-24T04:06:47;8.70;99.90
7174;DHT22;3628;48.654;8.932;2022-12-24T04:09:12;8.70;99.90
7174;DHT22;3628;48.654;8.932;2022-12-24T04:11:38;8.70;99.90
7174;DHT22;3628;48.654;8.932;2022-12-24T04:14:03;8.80;99.90
7174;DHT22;3628;48.654;8.932;2022-12-24T04:16:29;8.80;99.90
7174;DHT22;3628;48.654;8.932;2022-12-24T04:18:54;8.80;99.90
7174;DHT22;3628;48.654;8.932;2022-12-24T04:21:20;8.80;99.90
7174;DHT22;3628;48.654;8.932;2022-12-24T04:23:46;8.80;99.90
7174;DHT22;3628;48.654;8.932;2022-12-24T04:26:12;8.80;99.90
7174;DHT22;3628;48.654;8.932;2022-12-24T04:28:39;8.80;99.90
7174;DHT22;3628;48.654;8.932;2022-12-24T04:31:07;8.80;99.90
7174;DHT22;3628;48.654;8.932;2022-12-24T04:33:34;8.80;99.90
7174;DHT22;3628;48.654;8.932;2022-12-24T04:36:00;8.80;99.90
7174;DHT22;3628;48.654;8.932;2022-12-24T04:38:27;8.80;99.90
7174;DHT22;3628;48.654;8.932;2022-12-24T04:43:24;8.80;99.90
7174;DHT22;3628;48.654;8.932;2022-12-24T04:45:50;8.90;99.90
7174;DHT22;3628;48.654;8.932;2022-12-24T04:48:15;8.90;99.90
7174;DHT22;3628;48.654;8.932;2022-12-24T04:50:41;8.90;99.90
7174;DHT22;3628;48.654;8.932;2022-12-24T04:53:06;8.90;99.90
7174;DHT22;3628;48.654;8.932;2022-12-24T04:55:32;8.90;99.90
7174;DHT22;3628;48.654;8.932;2022-12-24T04:57:57;8.90;99.90
7174;DHT22;3628;48.654;8.932;2022-12-24T05:00:23;9.00;99.90
7174;DHT22;3628;48.654;8.932;2022-12-24T05:02:49;9.00;99.90
7174;DHT22;3628;48.654;8.932;2022-12-24T05:05:14;9.10;99.90
7174;DHT22;3628;48.654;8.932;2022-12-24T05:07:40;9.10;99.90
7174;DHT22;3628;48.654;8.932;2022-12-24T05:10:06;9.10;99.90
7174;DHT22;3628;48.654;8.932;2022-12-24T05:12:31;9.10;99.90
7174;DHT22;3628;48.654;8.932;2022-12-24T05:14:57;9.10;99.90
7174;DHT22;3628;48.654;8.932;2022-12-24T05:17:22;9.00;99.90
7174;DHT22;3628;48.654;8.932;2022-12-24T05:19:48;9.10;99.90
7174;DHT22;3628;48.654;8.932;2022-12-24T05:22:14;9.10;99.90
7174;DHT22;3628;48.654;8.932;2022-12-24T05:24:57;9.00;99.90
7174;DHT22;3628;48.654;8.932;2022-12-24T05:27:41;9.00;99.90
7174;DHT22;3628;48.654;8.932;2022-12-24T05:30:07;9.00;99.90
7174;DHT22;3628;48.654;8.932;2022-12-24T05:32:33;9.00;99.90
7174;DHT22;3628;48.654;8.932;2022-12-24T05:34:59;8.90;99.90
7174;DHT22;3628;48.654;8.932;2022-12-24T05:37:24;8.90;99.90
7174;DHT22;3628;48.654;8.932;2022-12-24T05:39:50;8.90;99.90
7174;DHT22;3628;48.654;8.932;2022-12-24T05:42:15;8.80;99.90
7174;DHT22;3628;48.654;8.932;2022-12-24T05:44:41;8.80;99.90
7174;DHT22;3628;48.654;8.932;2022-12-24T05:47:06;8.70;99.90
7174;DHT22;3628;48.654;8.932;2022-12-24T05:49:32;8.70;99.90
7174;DHT22;3628;48.654;8.932;2022-12-24T05:51:58;8.70;99.90
7174;DHT22;3628;48.654;8.932;2022-12-24T05:54:23;8.60;99.90
7174;DHT22;3628;48.654;8.932;2022-12-24T05:56:49;8.60;99.90
7174;DHT22;3628;48.654;8.932;2022-12-24T05:59:14;8.60;99.90
7174;DHT22;3628;48.654;8.932;2022-12-24T06:01:40;8.60;99.90
7174;DHT22;3628;48.654;8.932;2022-12-24T06:04:09;8.60;99.90
7174;DHT22;3628;48.654;8.932;2022-12-24T06:06:35;8.60;99.90
7174;DHT22;3628;48.654;8.932;2022-12-24T06:09:00;8.50;99.90
7174;DHT22;3628;48.654;8.932;2022-12-24T06:11:26;8.50;99.90
7174;DHT22;3628;48.654;8.932;2022-12-24T06:13:52;8.50;99.90
7174;DHT22;3628;48.654;8.932;2022-12-24T06:16:19;8.40;99.90
7174;DHT22;3628;48.654;8.932;2022-12-24T06:18:45;8.40;99.90
7174;DHT22;3628;48.654;8.932;2022-12-24T06:21:11;8.40;99.90
7174;DHT22;3628;48.654;8.932;2022-12-24T06:23:38;8.40;99.90
7174;DHT22;3628;48.654;8.932;2022-12-24T06:26:06;8.40;99.90
7174;DHT22;3628;48.654;8.932;2022-12-24T06:28:34;8.30;99.90
7174;DHT22;3628;48.654;8.932;2022-12-24T06:31:01;8.30;99.90
7174;DHT22;3628;48.654;8.932;2022-12-24T06:33:27;8.30;99.90
7174;DHT22;3628;48.654;8.932;2022-12-24T06:35:52;8.30;99.90
7174;DHT22;3628;48.654;8.932;2022-12-24T06:38:18;8.30;99.90
7174;DHT22;3628;48.654;8.932;2022-12-24T06:40:45;8.30;99.90
7174;DHT22;3628;48.654;8.932;2022-12-24T06:43:11;8.30;99.90
7174;DHT22;3628;48.654;8.932;2022-12-24T06:45:37;8.30;99.90
7174;DHT22;3628;48.654;8.932;2022-12-24T06:48:03;8.30;99.90
7174;DHT22;3628;48.654;8.932;2022-12-24T06:50:29;8.30;99.90
7174;DHT22;3628;48.654;8.932;2022-12-24T06:52:55;8.30;99.90
7174;DHT22;3628;48.654;8.932;2022-12-24T06:55:20;8.30;99.90
7174;DHT22;3628;48.654;8.932;2022-12-24T06:57:46;8.30;99.90
7174;DHT22;3628;48.654;8.932;2022-12-24T07:00:12;8.30;99.90
7174;DHT22;3628;48.654;8.932;2022-12-24T07:02:44;8.30;99.90
7174;DHT22;3628;48.654;8.932;2022-12-24T07:05:11;8.20;99.90
7174;DHT22;3628;48.654;8.932;2022-12-24T07:07:37;8.10;99.90
7174;DHT22;3628;48.654;8.932;2022-12-24T07:10:04;8.10;99.90
7174;DHT22;3628;48.654;8.932;2022-12-24T07:12:30;8.00;99.90
7174;DHT22;3628;48.654;8.932;2022-12-24T07:14:55;7.90;99.90
7174;DHT22;3628;48.654;8.932;2022-12-24T07:17:21;7.80;99.90
7174;DHT22;3628;48.654;8.932;2022-12-24T07:19:47;7.80;99.90
7174;DHT22;3628;48.654;8.932;2022-12-24T07:22:12;7.80;99.90
7174;DHT22;3628;48.654;8.932;2022-12-24T07:24:38;7.80;99.90
7174;DHT22;3628;48.654;8.932;2022-12-24T07:27:03;7.60;99.90
7174;DHT22;3628;48.654;8.932;2022-12-24T07:29:29;7.50;99.90
7174;DHT22;3628;48.654;8.932;2022-12-24T07:31:54;7.50;99.90
7174;DHT22;3628;48.654;8.932;2022-12-24T07:34:20;7.40;99.90
7174;DHT22;3628;48.654;8.932;2022-12-24T07:36:45;7.30;99.90
7174;DHT22;3628;48.654;8.932;2022-12-24T07:39:11;7.40;99.90
7174;DHT22;3628;48.654;8.932;2022-12-24T07:41:36;7.30;99.90
7174;DHT22;3628;48.654;8.932;2022-12-24T07:44:02;7.30;99.90
7174;DHT22;3628;48.654;8.932;2022-12-24T07:46:28;7.30;99.90
7174;DHT22;3628;48.654;8.932;2022-12-24T07:48:53;7.30;99.90
7174;DHT22;3628;48.654;8.932;2022-12-24T07:51:19;7.30;99.90
7174;DHT22;3628;48.654;8.932;2022-12-24T07:53:44;7.40;99.90
7174;DHT22;3628;48.654;8.932;2022-12-24T07:56:13;7.40;99.90
7174;DHT22;3628;48.654;8.932;2022-12-24T07:58:39;7.40;99.90
7174;DHT22;3628;48.654;8.932;2022-12-24T08:01:05;7.50;99.90
7174;DHT22;3628;48.654;8.932;2022-12-24T08:03:30;7.50;99.90
7174;DHT22;3628;48.654;8.932;2022-12-24T08:05:56;7.60;99.90
7174;DHT22;3628;48.654;8.932;2022-12-24T08:08:23;7.60;99.90
7174;DHT22;3628;48.654;8.932;2022-12-24T08:10:49;7.60;99.90
7174;DHT22;3628;48.654;8.932;2022-12-24T08:13:15;7.70;99.90
7174;DHT22;3628;48.654;8.932;2022-12-24T08:15:41;7.80;99.90
7174;DHT22;3628;48.654;8.932;2022-12-24T08:18:07;7.90;99.90
7174;DHT22;3628;48.654;8.932;2022-12-24T08:20:32;7.90;99.90
7174;DHT22;3628;48.654;8.932;2022-12-24T08:22:58;8.00;99.90
7174;DHT22;3628;48.654;8.932;2022-12-24T08:25:24;8.00;99.90
7174;DHT22;3628;48.654;8.932;2022-12-24T08:27:49;8.10;99.90
7174;DHT22;3628;48.654;8.932;2022-12-24T08:30:15;8.10;99.90
7174;DHT22;3628;48.654;8.932;2022-12-24T08:32:40;8.20;99.90
7174;DHT22;3628;48.654;8.932;2022-12-24T08:35:06;8.20;99.90
7174;DHT22;3628;48.654;8.932;2022-12-24T08:37:32;8.30;99.90
7174;DHT22;3628;48.654;8.932;2022-12-24T08:39:57;8.30;99.90
7174;DHT22;3628;48.654;8.932;2022-12-24T08:42:23;8.40;99.90
7174;DHT22;3628;48.654;8.932;2022-12-24T08:44:48;8.50;99.90
7174;DHT22;3628;48.654;8.932;2022-12-24T08:47:14;8.50;99.90
7174;DHT22;3628;48.654;8.932;2022-12-24T08:49:39;8.60;99.90
7174;DHT22;3628;48.654;8.932;2022-12-24T08:52:05;8.60;99.90
7174;DHT22;3628;48.654;8.932;2022-12-24T08:54:31;8.70;99.90
7174;DHT22;3628;48.654;8.932;2022-12-24T08:56:56;8.80;99.90
7174;DHT22;3628;48.654;8.932;2022-12-24T08:59:22;8.80;99.90
7174;DHT22;3628;48.654;8.932;2022-12-24T09:01:47;8.90;99.90
7174;DHT22;3628;48.654;8.932;2022-12-24T09:04:13;8.90;99.90
7174;DHT22;3628;48.654;8.932;2022-12-24T09:06:39;9.00;99.90
7174;DHT22;3628;48.654;8.932;2022-12-24T09:09:05;9.10;99.90
7174;DHT22;3628;48.654;8.932;2022-12-24T09:11:33;9.20;99.90
7174;DHT22;3628;48.654;8.932;2022-12-24T09:13:59;9.30;99.90
7174;DHT22;3628;48.654;8.932;2022-12-24T09:16:24;9.40;99.90
7174;DHT22;3628;48.654;8.932;2022-12-24T09:18:50;9.40;99.90
7174;DHT22;3628;48.654;8.932;2022-12-24T09:21:16;9.60;99.90
7174;DHT22;3628;48.654;8.932;2022-12-24T09:23:44;9.70;99.90
7174;DHT22;3628;48.654;8.932;2022-12-24T09:26:17;9.80;99.90
7174;DHT22;3628;48.654;8.932;2022-12-24T09:28:43;9.90;99.90
7174;DHT22;3628;48.654;8.932;2022-12-24T09:31:11;10.00;99.90
7174;DHT22;3628;48.654;8.932;2022-12-24T09:33:37;10.00;99.90
7174;DHT22;3628;48.654;8.932;2022-12-24T09:36:04;10.00;99.90
7174;DHT22;3628;48.654;8.932;2022-12-24T09:38:30;10.10;99.90
7174;DHT22;3628;48.654;8.932;2022-12-24T09:40:56;10.10;99.90
7174;DHT22;3628;48.654;8.932;2022-12-24T09:43:24;10.10;99.90
7174;DHT22;3628;48.654;8.932;2022-12-24T09:49:01;10.10;99.90
7174;DHT22;3628;48.654;8.932;2022-12-24T09:51:42;10.00;99.90
7174;DHT22;3628;48.654;8.932;2022-12-24T09:54:29;10.00;99.90
7174;DHT22;3628;48.654;8.932;2022-12-24T09:56:58;10.00;99.90
7174;DHT22;3628;48.654;8.932;2022-12-24T09:59:34;10.00;99.90
7174;DHT22;3628;48.654;8.932;2022-12-24T10:02:09;10.10;99.90
7174;DHT22;3628;48.654;8.932;2022-12-24T10:04:35;10.30;99.90
7174;DHT22;3628;48.654;8.932;2022-12-24T10:07:04;10.60;99.90
7174;DHT22;3628;48.654;8.932;2022-12-24T10:09:47;10.80;99.90
7174;DHT22;3628;48.654;8.932;2022-12-24T10:12:54;11.00;99.90
7174;DHT22;3628;48.654;8.932;2022-12-24T10:15:29;11.20;99.90
7174;DHT22;3628;48.654;8.932;2022-12-24T10:18:24;11.40;99.90
7174;DHT22;3628;48.654;8.932;2022-12-24T10:21:04;11.40;99.90
7174;DHT22;3628;48.654;8.932;2022-12-24T10:26:56;11.50;99.90
7174;DHT22;3628;48.654;8.932;2022-12-24T10:29:28;11.50;99.90
7174;DHT22;3628;48.654;8.932;2022-12-24T10:34:37;11.30;99.90
7174;DHT22;3628;48.654;8.932;2022-12-24T10:37:05;11.30;99.90
7174;DHT22;3628;48.654;8.932;2022-12-24T10:39:30;11.20;99.90
7174;DHT22;3628;48.654;8.932;2022-12-24T10:41:58;11.20;99.90
7174;DHT22;3628;48.654;8.932;2022-12-24T10:44:30;11.10;99.90
7174;DHT22;3628;48.654;8.932;2022-12-24T10:46:58;11.10;99.90
7174;DHT22;3628;48.654;8.932;2022-12-24T10:49:43;11.10;99.90
7174;DHT22;3628;48.654;8.932;2022-12-24T10:52:13;11.20;99.90
7174;DHT22;3628;48.654;8.932;2022-12-24T10:55:19;11.20;99.90
7174;DHT22;3628;48.654;8.932;2022-12-24T10:58:04;11.20;99.90
7174;DHT22;3628;48.654;8.932;2022-12-24T11:00:31;11.20;99.90
7174;DHT22;3628;48.654;8.932;2022-12-24T11:03:18;11.20;99.90
7174;DHT22;3628;48.654;8.932;2022-12-24T11:05:45;11.20;99.90
7174;DHT22;3628;48.654;8.932;2022-12-24T11:10:40;11.20;99.90
7174;DHT22;3628;48.654;8.932;2022-12-24T11:13:26;11.20;99.90
7174;DHT22;3628;48.654;8.932;2022-12-24T11:16:14;11.20;99.90
7174;DHT22;3628;48.654;8.932;2022-12-24T11:18:47;11.10;99.90
7174;DHT22;3628;48.654;8.932;2022-12-24T11:21:19;11.20;99.90
7174;DHT22;3628;48.654;8.932;2022-12-24T11:23:50;11.20;99.90
7174;DHT22;3628;48.654;8.932;2022-12-24T11:26:21;11.20;99.90
7174;DHT22;3628;48.654;8.932;2022-12-24T11:31:43;11.30;99.90
7174;DHT22;3628;48.654;8.932;2022-12-24T11:34:21;11.30;99.90
7174;DHT22;3628;48.654;8.932;2022-12-24T11:36:47;11.40;99.90
7174;DHT22;3628;48.654;8.932;2022-12-24T11:39:21;11.50;99.90
7174;DHT22;3628;48.654;8.932;2022-12-24T11:41:48;11.50;99.90
7174;DHT22;3628;48.654;8.932;2022-12-24T11:44:23;11.50;99.90
7174;DHT22;3628;48.654;8.932;2022-12-24T11:46:49;11.60;99.90
7174;DHT22;3628;48.654;8.932;2022-12-24T11:49:29;11.60;99.90
7174;DHT22;3628;48.654;8.932;2022-12-24T11:52:16;11.70;99.90
7174;DHT22;3628;48.654;8.932;2022-12-24T11:55:06;11.80;99.90
7174;DHT22;3628;48.654;8.932;2022-12-24T11:57:48;11.90;99.90
7174;DHT22;3628;48.654;8.932;2022-12-24T12:00:15;11.90;99.90
7174;DHT22;3628;48.654;8.932;2022-12-24T12:02:42;12.10;99.90
7174;DHT22;3628;48.654;8.932;2022-12-24T12:05:31;12.10;99.90
7174;DHT22;3628;48.654;8.932;2022-12-24T12:08:19;12.20;99.90
7174;DHT22;3628;48.654;8.932;2022-12-24T12:10:47;12.40;99.90
7174;DHT22;3628;48.654;8.932;2022-12-24T12:13:18;12.40;99.90
7174;DHT22;3628;48.654;8.932;2022-12-24T12:16:24;12.50;99.90
7174;DHT22;3628;48.654;8.932;2022-12-24T12:19:02;12.70;99.90
7174;DHT22;3628;48.654;8.932;2022-12-24T12:21:39;12.80;99.90
7174;DHT22;3628;48.654;8.932;2022-12-24T12:24:13;12.80;99.90
7174;DHT22;3628;48.654;8.932;2022-12-24T12:26:41;12.90;99.90
7174;DHT22;3628;48.654;8.932;2022-12-24T12:29:27;13.00;99.90
7174;DHT22;3628;48.654;8.932;2022-12-24T12:32:25;13.00;99.90
7174;DHT22;3628;48.654;8.932;2022-12-24T12:35:20;13.00;99.90
7174;DHT22;3628;48.654;8.932;2022-12-24T12:38:01;13.00;99.90
7174;DHT22;3628;48.654;8.932;2022-12-24T12:43:27;12.80;99.90
7174;DHT22;3628;48.654;8.932;2022-12-24T12:46:54;12.80;99.90
7174;DHT22;3628;48.654;8.932;2022-12-24T12:49:49;12.80;99.90
7174;DHT22;3628;48.654;8.932;2022-12-24T12:52:29;12.60;99.90
7174;DHT22;3628;48.654;8.932;2022-12-24T12:55:07;12.50;99.90
7174;DHT22;3628;48.654;8.932;2022-12-24T12:57:41;12.30;99.90
7174;DHT22;3628;48.654;8.932;2022-12-24T13:00:14;12.20;99.90
7174;DHT22;3628;48.654;8.932;2022-12-24T13:02:54;12.20;99.90
7174;DHT22;3628;48.654;8.932;2022-12-24T13:05:48;12.10;99.90
7174;DHT22;3628;48.654;8.932;2022-12-24T13:08:26;12.10;99.90
7174;DHT22;3628;48.654;8.932;2022-12-24T13:13:51;12.00;99.90
7174;DHT22;3628;48.654;8.932;2022-12-24T13:19:31;12.00;99.90
7174;DHT22;3628;48.654;8.932;2022-12-24T13:21:59;11.90;99.90
7174;DHT22;3628;48.654;8.932;2022-12-24T13:24:26;11.80;99.90
7174;DHT22;3628;48.654;8.932;2022-12-24T13:27:19;11.90;99.90
7174;DHT22;3628;48.654;8.932;2022-12-24T13:29:58;11.80;99.90
7174;DHT22;3628;48.654;8.932;2022-12-24T13:34:55;11.70;99.90
7174;DHT22;3628;48.654;8.932;2022-12-24T13:40:26;11.70;99.90
7174;DHT22;3628;48.654;8.932;2022-12-24T13:50:48;11.70;99.90
7174;DHT22;3628;48.654;8.932;2022-12-24T13:56:25;11.70;99.90
7174;DHT22;3628;48.654;8.932;2022-12-24T13:59:41;11.70;99.90
7174;DHT22;3628;48.654;8.932;2022-12-24T14:01:42;11.70;99.90
7174;DHT22;3628;48.654;8.932;2022-12-24T14:04:19;11.70;99.90
7174;DHT22;3628;48.654;8.932;2022-12-24T14:06:49;11.70;99.90
7174;DHT22;3628;48.654;8.932;2022-12-24T14:09:21;11.70;99.90
7174;DHT22;3628;48.654;8.932;2022-12-24T14:16:58;11.80;99.90
7174;DHT22;3628;48.654;8.932;2022-12-24T14:19:28;11.80;99.90
7174;DHT22;3628;48.654;8.932;2022-12-24T14:21:56;11.80;99.90
7174;DHT22;3628;48.654;8.932;2022-12-24T14:24:30;11.80;99.90
7174;DHT22;3628;48.654;8.932;2022-12-24T14:26:59;11.80;99.90
7174;DHT22;3628;48.654;8.932;2022-12-24T14:29:32;11.90;99.90
7174;DHT22;3628;48.654;8.932;2022-12-24T14:32:00;11.80;99.90
7174;DHT22;3628;48.654;8.932;2022-12-24T14:34:29;11.80;99.90
7174;DHT22;3628;48.654;8.932;2022-12-24T14:36:55;11.80;99.90
7174;DHT22;3628;48.654;8.932;2022-12-24T14:55:51;11.70;99.90
7174;DHT22;3628;48.654;8.932;2022-12-24T14:58:24;11.60;99.90
7174;DHT22;3628;48.654;8.932;2022-12-24T15:00:50;11.60;99.90
7174;DHT22;3628;48.654;8.932;2022-12-24T15:03:18;11.60;99.90
7174;DHT22;3628;48.654;8.932;2022-12-24T15:05:49;11.50;99.90
7174;DHT22;3628;48.654;8.932;2022-12-24T15:08:18;11.50;99.90
7174;DHT22;3628;48.654;8.932;2022-12-24T15:10:58;11.40;99.90
7174;DHT22;3628;48.654;8.932;2022-12-24T15:13:43;11.40;99.90
7174;DHT22;3628;48.654;8.932;2022-12-24T15:16:13;11.30;99.90
7174;DHT22;3628;48.654;8.932;2022-12-24T15:18:48;11.30;99.90
7174;DHT22;3628;48.654;8.932;2022-12-24T15:21:19;11.20;99.90
7174;DHT22;3628;48.654;8.932;2022-12-24T15:23:48;11.20;99.90
7174;DHT22;3628;48.654;8.932;2022-12-24T15:28:49;11.10;99.90
7174;DHT22;3628;48.654;8.932;2022-12-24T15:31:17;11.00;99.90
7174;DHT22;3628;48.654;8.932;2022-12-24T15:33:45;11.10;99.90
7174;DHT22;3628;48.654;8.932;2022-12-24T15:36:12;11.00;99.90
7174;DHT22;3628;48.654;8.932;2022-12-24T15:38:41;10.90;99.90
7174;DHT22;3628;48.654;8.932;2022-12-24T15:41:16;10.90;99.90
7174;DHT22;3628;48.654;8.932;2022-12-24T15:43:44;10.80;99.90
7174;DHT22;3628;48.654;8.932;2022-12-24T15:46:20;10.80;99.90
7174;DHT22;3628;48.654;8.932;2022-12-24T15:48:47;10.70;99.90
7174;DHT22;3628;48.654;8.932;2022-12-24T15:51:25;10.70;99.90
7174;DHT22;3628;48.654;8.932;2022-12-24T15:53:57;10.60;99.90
7174;DHT22;3628;48.654;8.932;2022-12-24T15:56:33;10.60;99.90
7174;DHT22;3628;48.654;8.932;2022-12-24T15:59:24;10.60;99.90
7174;DHT22;3628;48.654;8.932;2022-12-24T16:01:52;10.50;99.90
7174;DHT22;3628;48.654;8.932;2022-12-24T16:04:26;10.50;99.90
7174;DHT22;3628;48.654;8.932;2022-12-24T16:06:59;10.50;99.90
7174;DHT22;3628;48.654;8.932;2022-12-24T16:14:47;10.50;99.90
7174;DHT22;3628;48.654;8.932;2022-12-24T16:17:23;10.40;99.90
7174;DHT22;3628;48.654;8.932;2022-12-24T16:19:51;10.40;99.90
7174;DHT22;3628;48.654;8.932;2022-12-24T16:22:19;10.30;99.90
7174;DHT22;3628;48.654;8.932;2022-12-24T16:25:23;10.30;99.90
7174;DHT22;3628;48.654;8.932;2022-12-24T16:27:48;10.30;99.90
7174;DHT22;3628;48.654;8.932;2022-12-24T16:30:14;10.30;99.90
7174;DHT22;3628;48.654;8.932;2022-12-24T16:32:40;10.30;99.90
7174;DHT22;3628;48.654;8.932;2022-12-24T16:35:37;10.30;99.90
7174;DHT22;3628;48.654;8.932;2022-12-24T16:38:03;10.20;99.90
7174;DHT22;3628;48.654;8.932;2022-12-24T16:40:28;10.30;99.90
7174;DHT22;3628;48.654;8.932;2022-12-24T16:42:57;10.20;99.90
7174;DHT22;3628;48.654;8.932;2022-12-24T16:45:41;10.20;99.90
7174;DHT22;3628;48.654;8.932;2022-12-24T16:48:10;10.20;99.90
7174;DHT22;3628;48.654;8.932;2022-12-24T16:50:41;10.20;99.90
7174;DHT22;3628;48.654;8.932;2022-12-24T16:53:08;10.20;99.90
7174;DHT22;3628;48.654;8.932;2022-12-24T16:55:36;10.20;99.90
7174;DHT22;3628;48.654;8.932;2022-12-24T16:58:02;10.20;99.90
7174;DHT22;3628;48.654;8.932;2022-12-24T17:00:27;10.20;99.90
7174;DHT22;3628;48.654;8.932;2022-12-24T17:02:53;10.20;99.90
7174;DHT22;3628;48.654;8.932;2022-12-24T17:05:18;10.20;99.90
7174;DHT22;3628;48.654;8.932;2022-12-24T17:07:48;10.20;99.90
7174;DHT22;3628;48.654;8.932;2022-12-24T17:10:14;10.30;99.90
7174;DHT22;3628;48.654;8.932;2022-12-24T17:12:40;10.30;99.90
7174;DHT22;3628;48.654;8.932;2022-12-24T17:15:06;10.30;99.90
7174;DHT22;3628;48.654;8.932;2022-12-24T17:17:32;10.30;99.90
7174;DHT22;3628;48.654;8.932;2022-12-24T17:19:58;10.20;99.90
7174;DHT22;3628;48.654;8.932;2022-12-24T17:22:24;10.20;99.90
7174;DHT22;3628;48.654;8.932;2022-12-24T17:24:52;10.20;99.90
7174;DHT22;3628;48.654;8.932;2022-12-24T17:27:18;10.20;99.90
7174;DHT22;3628;48.654;8.932;2022-12-24T17:29:44;10.20;99.90
7174;DHT22;3628;48.654;8.932;2022-12-24T17:32:09;10.10;99.90
7174;DHT22;3628;48.654;8.932;2022-12-24T17:34:35;10.10;99.90
7174;DHT22;3628;48.654;8.932;2022-12-24T17:37:01;10.10;99.90
7174;DHT22;3628;48.654;8.932;2022-12-24T17:39:26;10.10;99.90
7174;DHT22;3628;48.654;8.932;2022-12-24T17:41:52;10.10;99.90
7174;DHT22;3628;48.654;8.932;2022-12-24T17:44:18;10.00;99.90
7174;DHT22;3628;48.654;8.932;2022-12-24T17:46:43;10.00;99.90
7174;DHT22;3628;48.654;8.932;2022-12-24T17:49:09;10.00;99.90
7174;DHT22;3628;48.654;8.932;2022-12-24T17:51:35;10.00;99.90
7174;DHT22;3628;48.654;8.932;2022-12-24T17:54:01;10.00;99.90
7174;DHT22;3628;48.654;8.932;2022-12-24T17:56:27;10.00;99.90
7174;DHT22;3628;48.654;8.932;2022-12-24T17:58:53;10.00;99.90
7174;DHT22;3628;48.654;8.932;2022-12-24T18:01:21;10.00;99.90
7174;DHT22;3628;48.654;8.932;2022-12-24T18:03:48;10.00;99.90
7174;DHT22;3628;48.654;8.932;2022-12-24T18:06:15;10.00;99.90